Time;durP1;ratioP1;P1;durP2;ratioP2;P2;SDS_P1;SDS_P2;PMS_P1;PMS_P2;Temp;Humidity;BMP_temperature;BMP_pressure;BME280_temperature;BME280_humidity;BME280_pressure;Samples;Min_cycle;Max_cycle;Signal;HPM_P1;HPM_P2
2022/10/25 00:01:36;;;;;;;8.27;3.60;;;;;;;;;;5028950;28;20038;-70
2022/10/25 00:04:02;;;;;;;8.85;4.65;;;;;;;;;;5028736;28;20051;-71
2022/10/25 00:06:29;;;;;;;7.68;3.55;;;;;;;;;;5024723;28;20037;-69
2022/10/25 00:08:55;;;;;;;7.35;3.25;;;;;;;;;;5024462;28;20534;-71
2022/10/25 00:11:24;;;;;;;5.13;2.47;;;;;;;;;;5023434;28;20120;-69
2022/10/25 00:13:51;;;;;;;6.22;3.03;;;;;;;;;;5024653;28;20079;-69
2022/10/25 00:16:19;;;;;;;5.93;3.45;;;;;;;;;;5025267;28;20136;-68
2022/10/25 00:18:46;;;;;;;5.60;2.72;;;;;;;;;;5023530;28;20068;-68
2022/10/25 00:21:13;;;;;;;8.45;3.72;;;;;;;;;;5024517;28;20599;-68
2022/10/25 00:23:39;;;;;;;11.18;3.97;;;;;;;;;;5023749;28;20509;-69
2022/10/25 00:26:07;;;;;;;8.70;4.15;;;;;;;;;;5025445;28;20071;-68
2022/10/25 00:28:33;;;;;;;7.50;3.97;;;;;;;;;;5023629;28;20386;-68
2022/10/25 00:31:20;;;;;;;9.63;3.90;;;;;;;;;;5011824;28;20063;-68
2022/10/25 00:33:47;;;;;;;8.68;4.47;;;;;;;;;;5019163;28;20037;-68
2022/10/25 00:36:17;;;;;;;7.22;4.13;;;;;;;;;;5028770;28;20898;-69
2022/10/25 00:38:45;;;;;;;12.65;4.93;;;;;;;;;;5024301;28;20040;-68
2022/10/25 00:41:12;;;;;;;8.25;4.18;;;;;;;;;;5023732;28;20132;-68
2022/10/25 00:43:40;;;;;;;13.93;5.18;;;;;;;;;;5025384;28;20059;-69
2022/10/25 00:46:12;;;;;;;10.05;4.70;;;;;;;;;;5028082;28;20053;-67
2022/10/25 00:48:39;;;;;;;16.48;4.20;;;;;;;;;;5024064;28;20051;-66
2022/10/25 00:51:06;;;;;;;12.32;4.35;;;;;;;;;;5021316;28;20128;-68
2022/10/25 00:53:35;;;;;;;10.70;4.63;;;;;;;;;;5025883;28;20835;-67
2022/10/25 00:56:05;;;;;;;9.25;4.95;;;;;;;;;;5029416;28;20049;-69
2022/10/25 00:58:57;;;;;;;10.45;4.13;;;;;;;;;;5015679;28;20037;-72
2022/10/25 01:01:43;;;;;;;9.63;3.97;;;;;;;;;;5061809;28;20158;-67
2022/10/25 01:04:13;;;;;;;7.90;3.80;;;;;;;;;;5048093;28;20037;-66
2022/10/25 01:06:42;;;;;;;7.38;4.10;;;;;;;;;;5053056;28;20102;-67
2022/10/25 01:09:10;;;;;;;9.60;4.55;;;;;;;;;;5053970;28;20048;-68
2022/10/25 01:11:37;;;;;;;11.70;4.30;;;;;;;;;;5052792;28;20119;-67
2022/10/25 01:14:08;;;;;;;7.65;3.50;;;;;;;;;;5053939;28;20463;-66
2022/10/25 01:16:57;;;;;;;7.85;4.32;;;;;;;;;;5053481;28;20051;-67
2022/10/25 01:19:43;;;;;;;11.35;4.72;;;;;;;;;;5053772;28;20041;-65
2022/10/25 01:22:32;;;;;;;8.18;4.78;;;;;;;;;;5055033;28;20559;-68
2022/10/25 01:25:17;;;;;;;10.45;6.03;;;;;;;;;;5046754;28;20033;-67
2022/10/25 01:27:46;;;;;;;10.80;5.53;;;;;;;;;;5053555;28;20066;-67
2022/10/25 01:30:19;;;;;;;9.40;5.38;;;;;;;;;;5053935;28;20079;-69
2022/10/25 01:32:52;;;;;;;10.27;5.28;;;;;;;;;;5039738;28;20037;-68
2022/10/25 01:35:24;;;;;;;11.23;5.00;;;;;;;;;;5027050;28;20310;-68
2022/10/25 01:37:58;;;;;;;10.35;5.32;;;;;;;;;;5028016;28;20037;-68
2022/10/25 01:40:38;;;;;;;31.52;19.60;;;;;;;;;;5025640;28;20049;-68
2022/10/25 01:43:19;;;;;;;64.15;35.85;;;;;;;;;;5040664;28;20146;-69
2022/10/25 01:45:48;;;;;;;7.68;4.25;;;;;;;;;;5024733;28;20041;-68
2022/10/25 01:48:19;;;;;;;9.65;5.40;;;;;;;;;;5027378;28;20049;-68
2022/10/25 01:50:47;;;;;;;14.50;6.78;;;;;;;;;;5024847;28;21705;-67
2022/10/25 01:53:14;;;;;;;13.32;7.10;;;;;;;;;;5028137;28;20122;-68
2022/10/25 01:55:40;;;;;;;10.75;6.55;;;;;;;;;;5026720;28;20044;-67
2022/10/25 01:58:21;;;;;;;16.83;8.65;;;;;;;;;;5027229;28;20612;-67
2022/10/25 02:00:55;;;;;;;16.33;7.68;;;;;;;;;;5018104;28;20123;-67
2022/10/25 02:03:33;;;;;;;11.90;6.32;;;;;;;;;;5019700;28;20045;-69
2022/10/25 02:06:00;;;;;;;11.07;6.35;;;;;;;;;;5027052;28;20045;-68
2022/10/25 02:08:27;;;;;;;15.93;6.55;;;;;;;;;;5026388;28;20045;-67
2022/10/25 02:11:11;;;;;;;9.75;6.38;;;;;;;;;;5027180;28;20048;-68
2022/10/25 02:13:44;;;;;;;18.75;10.05;;;;;;;;;;5027867;28;20033;-67
2022/10/25 02:16:12;;;;;;;23.40;16.02;;;;;;;;;;5027508;28;20600;-67
2022/10/25 02:18:41;;;;;;;104.93;66.53;;;;;;;;;;5026459;28;20041;-67
2022/10/25 02:21:10;;;;;;;21.38;12.20;;;;;;;;;;5041426;28;20033;-68
2022/10/25 02:23:37;;;;;;;17.23;10.00;;;;;;;;;;5026287;28;20114;-66
2022/10/25 02:26:06;;;;;;;17.52;10.18;;;;;;;;;;5027008;28;20040;-68
2022/10/25 02:28:33;;;;;;;92.40;61.22;;;;;;;;;;5026666;28;20052;-68
2022/10/25 02:31:00;;;;;;;26.20;16.77;;;;;;;;;;5023061;28;20041;-68
2022/10/25 02:33:27;;;;;;;27.65;12.68;;;;;;;;;;5032112;28;20092;-68
2022/10/25 02:36:13;;;;;;;21.30;12.90;;;;;;;;;;5035696;28;20044;-68
2022/10/25 02:38:40;;;;;;;16.55;10.75;;;;;;;;;;5032052;28;20055;-68
2022/10/25 02:41:07;;;;;;;23.10;13.70;;;;;;;;;;5026539;28;20069;-69
2022/10/25 02:43:33;;;;;;;32.42;18.75;;;;;;;;;;5026158;28;20093;-69
2022/10/25 02:46:04;;;;;;;26.73;16.33;;;;;;;;;;5028660;28;20069;-69
2022/10/25 02:48:31;;;;;;;28.58;14.23;;;;;;;;;;5031617;28;20061;-69
2022/10/25 02:50:57;;;;;;;23.05;13.43;;;;;;;;;;5012799;28;20049;-68
2022/10/25 02:53:24;;;;;;;29.08;14.77;;;;;;;;;;5027216;28;20041;-67
2022/10/25 02:55:59;;;;;;;71.80;48.67;;;;;;;;;;5026877;28;20102;-68
2022/10/25 02:58:25;;;;;;;44.88;26.38;;;;;;;;;;5027254;28;20048;-68
2022/10/25 03:00:52;;;;;;;28.10;16.13;;;;;;;;;;5026769;28;20072;-69
2022/10/25 03:03:19;;;;;;;67.03;38.03;;;;;;;;;;5027535;28;20047;-70
2022/10/25 03:05:45;;;;;;;43.58;22.95;;;;;;;;;;5027681;28;20456;-68
2022/10/25 03:08:12;;;;;;;49.70;32.17;;;;;;;;;;5029113;28;20052;-69
2022/10/25 03:10:38;;;;;;;46.15;24.55;;;;;;;;;;5028470;28;20073;-68
2022/10/25 03:13:05;;;;;;;33.67;14.95;;;;;;;;;;5043554;28;20064;-70
2022/10/25 03:15:32;;;;;;;112.90;56.08;;;;;;;;;;5029774;28;20132;-69
2022/10/25 03:17:58;;;;;;;98.25;51.03;;;;;;;;;;5028630;28;20366;-69
2022/10/25 03:20:25;;;;;;;71.90;39.95;;;;;;;;;;5027886;28;20073;-68
2022/10/25 03:22:51;;;;;;;17.17;8.13;;;;;;;;;;5030567;28;20045;-67
2022/10/25 03:25:18;;;;;;;14.82;7.72;;;;;;;;;;5029143;28;21025;-69
2022/10/25 03:27:44;;;;;;;14.02;8.15;;;;;;;;;;5030200;28;20168;-69
2022/10/25 03:30:13;;;;;;;10.65;7.20;;;;;;;;;;5028652;28;20266;-68
2022/10/25 03:32:39;;;;;;;15.02;7.35;;;;;;;;;;5060785;28;20047;-68
2022/10/25 03:35:06;;;;;;;13.05;7.47;;;;;;;;;;5024719;28;20045;-66
2022/10/25 03:37:33;;;;;;;14.32;7.60;;;;;;;;;;5029047;28;20044;-67
2022/10/25 03:39:59;;;;;;;12.60;8.02;;;;;;;;;;5029005;28;20041;-69
2022/10/25 03:42:26;;;;;;;14.13;7.30;;;;;;;;;;5027868;28;20045;-67
2022/10/25 03:44:53;;;;;;;12.82;7.05;;;;;;;;;;5030395;28;20037;-67
2022/10/25 03:47:20;;;;;;;11.63;7.25;;;;;;;;;;5029977;28;20115;-67
2022/10/25 03:49:46;;;;;;;14.35;7.45;;;;;;;;;;5028044;28;20056;-68
2022/10/25 03:52:13;;;;;;;15.20;7.53;;;;;;;;;;5029411;28;20072;-68
2022/10/25 03:54:41;;;;;;;15.48;7.20;;;;;;;;;;5029464;28;20033;-68
2022/10/25 03:57:08;;;;;;;15.57;7.20;;;;;;;;;;5024728;28;20041;-68
2022/10/25 03:59:34;;;;;;;13.27;6.63;;;;;;;;;;5025053;28;20833;-66
2022/10/25 04:02:01;;;;;;;12.65;6.35;;;;;;;;;;5021171;28;20037;-67
2022/10/25 04:04:28;;;;;;;14.20;6.55;;;;;;;;;;5020388;28;20037;-66
2022/10/25 04:06:54;;;;;;;16.33;6.07;;;;;;;;;;5013564;28;20045;-68
2022/10/25 04:09:21;;;;;;;14.50;6.80;;;;;;;;;;5028122;28;20061;-66
2022/10/25 04:11:47;;;;;;;11.82;6.47;;;;;;;;;;5028735;28;20063;-67
2022/10/25 04:14:14;;;;;;;13.02;6.72;;;;;;;;;;5017575;28;20033;-68
2022/10/25 04:16:41;;;;;;;12.57;6.43;;;;;;;;;;5018646;28;21715;-66
2022/10/25 04:19:08;;;;;;;11.05;6.28;;;;;;;;;;5044470;28;20127;-67
2022/10/25 04:21:34;;;;;;;16.13;7.18;;;;;;;;;;5021582;28;20498;-66
2022/10/25 04:24:01;;;;;;;12.85;6.18;;;;;;;;;;5029392;28;20037;-67
2022/10/25 04:26:28;;;;;;;15.00;7.55;;;;;;;;;;5027589;28;20038;-67
2022/10/25 04:28:55;;;;;;;16.65;7.00;;;;;;;;;;5029481;28;20552;-67
2022/10/25 04:31:23;;;;;;;12.55;6.88;;;;;;;;;;5029195;28;20052;-69
2022/10/25 04:33:51;;;;;;;11.88;6.75;;;;;;;;;;5028387;28;20069;-67
2022/10/25 04:36:17;;;;;;;14.27;6.68;;;;;;;;;;5028973;28;20146;-68
2022/10/25 04:38:44;;;;;;;13.80;6.47;;;;;;;;;;5028955;28;20418;-67
2022/10/25 04:41:11;;;;;;;14.93;6.53;;;;;;;;;;5027976;28;20045;-67
2022/10/25 04:43:37;;;;;;;12.13;5.68;;;;;;;;;;5020600;28;20178;-67
2022/10/25 04:46:04;;;;;;;15.50;6.22;;;;;;;;;;5030231;28;20075;-67
2022/10/25 04:48:30;;;;;;;10.90;6.03;;;;;;;;;;5028105;28;20118;-68
2022/10/25 04:51:00;;;;;;;13.07;6.65;;;;;;;;;;5027843;28;20080;-68
2022/10/25 04:53:27;;;;;;;13.70;6.20;;;;;;;;;;5027214;28;20045;-67
2022/10/25 04:55:57;;;;;;;14.50;6.75;;;;;;;;;;5028812;28;20119;-68
2022/10/25 04:58:25;;;;;;;12.05;6.20;;;;;;;;;;5028603;28;20037;-68
2022/10/25 05:00:52;;;;;;;12.52;6.82;;;;;;;;;;5028334;28;20115;-68
2022/10/25 05:03:19;;;;;;;12.20;6.05;;;;;;;;;;5028652;28;20052;-68
2022/10/25 05:05:45;;;;;;;13.50;6.53;;;;;;;;;;5023411;28;20554;-68
2022/10/25 05:08:12;;;;;;;15.00;6.25;;;;;;;;;;5017059;28;20131;-68
2022/10/25 05:10:39;;;;;;;12.80;6.57;;;;;;;;;;5018260;28;20049;-68
2022/10/25 05:13:05;;;;;;;11.25;6.22;;;;;;;;;;5028218;28;20426;-68
2022/10/25 05:15:32;;;;;;;15.95;7.03;;;;;;;;;;5011374;28;20061;-67
2022/10/25 05:17:59;;;;;;;11.35;6.55;;;;;;;;;;5027013;28;20033;-67
2022/10/25 05:20:27;;;;;;;12.70;7.10;;;;;;;;;;5018949;28;20046;-68
2022/10/25 05:22:53;;;;;;;15.68;6.80;;;;;;;;;;5027374;28;20033;-67
2022/10/25 05:25:21;;;;;;;12.23;7.50;;;;;;;;;;5025912;28;20041;-68
2022/10/25 05:27:47;;;;;;;13.68;6.72;;;;;;;;;;5026166;28;20070;-68
2022/10/25 05:30:14;;;;;;;11.05;6.55;;;;;;;;;;5025669;28;20367;-67
2022/10/25 05:32:42;;;;;;;13.73;7.05;;;;;;;;;;5027408;28;20038;-66
2022/10/25 05:35:09;;;;;;;15.35;6.68;;;;;;;;;;5027732;28;20041;-68
2022/10/25 05:37:35;;;;;;;10.60;6.18;;;;;;;;;;5026948;28;20032;-69
2022/10/25 05:40:02;;;;;;;15.20;6.65;;;;;;;;;;5025487;28;20036;-67
2022/10/25 05:42:28;;;;;;;15.10;6.70;;;;;;;;;;5027133;28;20041;-68
2022/10/25 05:44:55;;;;;;;12.50;6.88;;;;;;;;;;5027281;28;20050;-67
2022/10/25 05:47:21;;;;;;;13.43;6.93;;;;;;;;;;5025463;28;20033;-68
2022/10/25 05:49:48;;;;;;;15.68;8.50;;;;;;;;;;5019688;28;20050;-67
2022/10/25 05:52:15;;;;;;;16.48;7.45;;;;;;;;;;5027895;28;20391;-68
2022/10/25 05:54:41;;;;;;;17.27;7.05;;;;;;;;;;5023448;28;20044;-67
2022/10/25 05:57:08;;;;;;;12.18;6.40;;;;;;;;;;5024413;28;20037;-67
2022/10/25 05:59:34;;;;;;;11.18;5.40;;;;;;;;;;5026301;28;20037;-65
2022/10/25 06:02:01;;;;;;;10.27;5.55;;;;;;;;;;5027901;28;20033;-66
2022/10/25 06:04:27;;;;;;;10.80;5.32;;;;;;;;;;5026356;28;20065;-66
2022/10/25 06:06:54;;;;;;;9.15;4.82;;;;;;;;;;5019839;28;20029;-67
2022/10/25 06:09:21;;;;;;;15.43;5.57;;;;;;;;;;5026742;28;20072;-66
2022/10/25 06:11:47;;;;;;;9.13;4.43;;;;;;;;;;5028058;28;20042;-66
2022/10/25 06:14:14;;;;;;;8.23;4.53;;;;;;;;;;5028495;28;20534;-66
2022/10/25 06:16:40;;;;;;;10.50;4.82;;;;;;;;;;5026498;28;20120;-66
2022/10/25 06:19:07;;;;;;;12.55;4.80;;;;;;;;;;5026346;28;20047;-66
2022/10/25 06:21:34;;;;;;;9.57;5.05;;;;;;;;;;5017175;28;20037;-66
2022/10/25 06:24:01;;;;;;;9.73;4.55;;;;;;;;;;5020966;28;20039;-66
2022/10/25 06:26:28;;;;;;;7.03;4.05;;;;;;;;;;5031479;28;20075;-66
2022/10/25 06:28:59;;;;;;;8.07;4.30;;;;;;;;;;5016537;28;20041;-67
2022/10/25 06:31:26;;;;;;;8.73;4.10;;;;;;;;;;5020267;28;20107;-65
2022/10/25 06:33:53;;;;;;;10.45;4.85;;;;;;;;;;5028432;28;20052;-67
2022/10/25 06:36:20;;;;;;;8.57;4.68;;;;;;;;;;5028776;28;20915;-68
2022/10/25 06:38:48;;;;;;;8.85;5.07;;;;;;;;;;5031509;28;20033;-65
2022/10/25 06:41:18;;;;;;;8.77;4.15;;;;;;;;;;5030815;28;20056;-65
2022/10/25 06:43:45;;;;;;;8.68;4.45;;;;;;;;;;5034025;28;20041;-66
2022/10/25 06:46:31;;;;;;;8.00;4.32;;;;;;;;;;5027642;28;20052;-65
2022/10/25 06:48:59;;;;;;;11.00;4.25;;;;;;;;;;5032451;28;20699;-65
2022/10/25 06:51:27;;;;;;;8.43;4.68;;;;;;;;;;5032924;28;20057;-66
2022/10/25 06:53:57;;;;;;;8.00;4.05;;;;;;;;;;5033215;28;20056;-66
2022/10/25 06:56:24;;;;;;;7.80;4.20;;;;;;;;;;5032239;28;20080;-67
2022/10/25 06:58:50;;;;;;;6.57;3.80;;;;;;;;;;5031426;28;20037;-67
2022/10/25 07:01:18;;;;;;;7.35;3.90;;;;;;;;;;5030645;28;20037;-66
2022/10/25 07:03:45;;;;;;;7.35;3.42;;;;;;;;;;5031785;28;20477;-65
2022/10/25 07:06:13;;;;;;;6.78;3.80;;;;;;;;;;5029846;28;20537;-65
2022/10/25 07:08:41;;;;;;;9.68;4.07;;;;;;;;;;5031562;28;20045;-67
2022/10/25 07:11:12;;;;;;;8.57;3.97;;;;;;;;;;5031069;28;20132;-65
2022/10/25 07:13:39;;;;;;;9.77;4.65;;;;;;;;;;5029707;28;20056;-65
2022/10/25 07:16:06;;;;;;;10.68;3.90;;;;;;;;;;5024052;28;20041;-65
2022/10/25 07:18:33;;;;;;;13.13;4.45;;;;;;;;;;5016322;28;20042;-66
2022/10/25 07:21:03;;;;;;;6.47;3.78;;;;;;;;;;5029383;28;20523;-64
2022/10/25 07:23:30;;;;;;;8.45;3.92;;;;;;;;;;5030692;28;20052;-65
2022/10/25 07:25:57;;;;;;;7.70;3.92;;;;;;;;;;5031097;28;20593;-66
2022/10/25 07:28:24;;;;;;;6.35;3.40;;;;;;;;;;5029779;28;20041;-66
2022/10/25 07:30:51;;;;;;;8.13;4.18;;;;;;;;;;5027601;28;20406;-66
2022/10/25 07:33:18;;;;;;;7.95;3.53;;;;;;;;;;5026700;28;20846;-66
2022/10/25 07:35:48;;;;;;;6.82;3.65;;;;;;;;;;5029339;28;20106;-66
2022/10/25 07:38:15;;;;;;;6.57;3.80;;;;;;;;;;5029847;28;20549;-67
2022/10/25 07:40:42;;;;;;;10.57;3.97;;;;;;;;;;5026152;28;20114;-66
2022/10/25 07:43:09;;;;;;;8.18;3.65;;;;;;;;;;5029460;28;20140;-67
2022/10/25 07:45:36;;;;;;;7.13;3.60;;;;;;;;;;5036353;28;20038;-66
2022/10/25 07:48:02;;;;;;;8.13;3.72;;;;;;;;;;5031069;28;21161;-65
2022/10/25 07:50:29;;;;;;;9.05;3.30;;;;;;;;;;5027993;28;20522;-66
2022/10/25 07:52:57;;;;;;;5.97;3.38;;;;;;;;;;5046414;28;20037;-67
2022/10/25 07:55:24;;;;;;;8.93;3.40;;;;;;;;;;5029183;28;20041;-66
2022/10/25 07:57:50;;;;;;;7.20;3.50;;;;;;;;;;5042130;28;20058;-65
2022/10/25 08:00:17;;;;;;;6.63;3.53;;;;;;;;;;5029921;28;20037;-65
2022/10/25 08:02:43;;;;;;;5.88;3.20;;;;;;;;;;5028689;28;20052;-65
2022/10/25 08:05:10;;;;;;;8.02;4.32;;;;;;;;;;5061286;28;20103;-66
2022/10/25 08:07:37;;;;;;;5.75;3.20;;;;;;;;;;5028525;28;20939;-67
2022/10/25 08:10:03;;;;;;;5.60;3.20;;;;;;;;;;5043563;28;20125;-66
2022/10/25 08:12:30;;;;;;;8.57;3.60;;;;;;;;;;5034393;28;20041;-66
2022/10/25 08:17:39;;;;;;;6.75;3.38;;;;;;;;;;4426259;23;20673;-68
2022/10/25 08:20:06;;;;;;;7.80;3.67;;;;;;;;;;4946341;28;20074;-67
2022/10/25 08:22:32;;;;;;;7.18;4.00;;;;;;;;;;4943701;28;20043;-67
2022/10/25 08:24:59;;;;;;;7.03;3.28;;;;;;;;;;4930409;28;20040;-68
2022/10/25 08:27:26;;;;;;;8.50;3.10;;;;;;;;;;4930474;28;20044;-67
2022/10/25 08:29:53;;;;;;;6.95;3.58;;;;;;;;;;4930374;28;20039;-67
2022/10/25 08:32:20;;;;;;;6.80;3.42;;;;;;;;;;4931029;28;20039;-67
2022/10/25 08:34:46;;;;;;;7.80;3.47;;;;;;;;;;4931081;28;20035;-67
2022/10/25 08:37:13;;;;;;;6.72;3.53;;;;;;;;;;4931100;28;20095;-66
2022/10/25 08:39:40;;;;;;;7.70;3.47;;;;;;;;;;4929411;28;20044;-67
2022/10/25 08:42:06;;;;;;;9.88;3.78;;;;;;;;;;4930267;28;20035;-67
2022/10/25 08:44:44;;;;;;;6.95;3.08;;;;;;;;;;4928657;28;20050;-66
2022/10/25 08:47:18;;;;;;;8.57;3.70;;;;;;;;;;4930853;28;20044;-66
2022/10/25 08:49:49;;;;;;;6.38;3.40;;;;;;;;;;4929910;28;20055;-67
2022/10/25 08:52:22;;;;;;;6.72;3.35;;;;;;;;;;4931277;28;20055;-67
2022/10/25 08:54:49;;;;;;;7.20;3.67;;;;;;;;;;4929741;28;20126;-67
2022/10/25 08:57:19;;;;;;;8.98;3.08;;;;;;;;;;4932674;28;20649;-67
2022/10/25 08:59:49;;;;;;;8.65;3.60;;;;;;;;;;4931171;28;20040;-68
2022/10/25 09:02:18;;;;;;;6.47;3.28;;;;;;;;;;4930202;28;20058;-67
2022/10/25 09:04:45;;;;;;;6.40;3.53;;;;;;;;;;4929616;28;20039;-66
2022/10/25 09:07:12;;;;;;;7.38;3.38;;;;;;;;;;4928856;28;20063;-67
2022/10/25 09:09:47;;;;;;;6.55;3.50;;;;;;;;;;4929190;28;22498;-67
2022/10/25 09:12:23;;;;;;;10.50;3.75;;;;;;;;;;4930018;28;20563;-67
2022/10/25 09:14:53;;;;;;;6.70;3.75;;;;;;;;;;4930604;28;20423;-66
2022/10/25 09:17:21;;;;;;;6.70;3.58;;;;;;;;;;4930842;28;20055;-67
2022/10/25 09:19:51;;;;;;;7.50;3.60;;;;;;;;;;4932194;28;20043;-66
2022/10/25 09:22:20;;;;;;;8.85;4.03;;;;;;;;;;4931364;28;20048;-66
2022/10/25 09:25:00;;;;;;;8.23;4.10;;;;;;;;;;4943779;28;20040;-66
2022/10/25 09:27:34;;;;;;;11.30;4.25;;;;;;;;;;4944411;28;20054;-67
2022/10/25 09:30:03;;;;;;;10.98;3.67;;;;;;;;;;4929893;28;20052;-66
2022/10/25 09:32:36;;;;;;;8.98;3.50;;;;;;;;;;4930305;28;20087;-66
2022/10/25 09:35:04;;;;;;;11.68;3.83;;;;;;;;;;4945120;28;20403;-66
2022/10/25 09:37:36;;;;;;;6.65;3.33;;;;;;;;;;4930558;28;20031;-66
2022/10/25 09:40:16;;;;;;;7.38;4.38;;;;;;;;;;4935369;28;20070;-66
2022/10/25 09:43:03;;;;;;;8.88;4.03;;;;;;;;;;4936361;28;20040;-67
2022/10/25 09:45:50;;;;;;;10.13;4.15;;;;;;;;;;4940450;28;20069;-65
2022/10/25 09:48:22;;;;;;;7.40;3.80;;;;;;;;;;4940841;28;20406;-66
2022/10/25 09:51:01;;;;;;;7.95;3.88;;;;;;;;;;4942406;28;20130;-66
2022/10/25 09:53:29;;;;;;;10.77;4.13;;;;;;;;;;4956361;28;20103;-67
2022/10/25 09:56:00;;;;;;;8.43;3.80;;;;;;;;;;4942947;28;20051;-67
2022/10/25 09:58:29;;;;;;;7.30;4.13;;;;;;;;;;4940894;28;20045;-67
2022/10/25 10:00:57;;;;;;;8.13;3.88;;;;;;;;;;4937672;28;20046;-67
2022/10/25 10:03:27;;;;;;;10.48;4.03;;;;;;;;;;4934515;28;20048;-67
2022/10/25 10:05:56;;;;;;;6.55;3.60;;;;;;;;;;4934931;28;21800;-67
2022/10/25 10:08:24;;;;;;;8.45;3.67;;;;;;;;;;4929554;28;20419;-67
2022/10/25 10:10:51;;;;;;;8.45;3.92;;;;;;;;;;4930281;28;20078;-65
2022/10/25 10:13:40;;;;;;;7.53;3.65;;;;;;;;;;4929435;28;20398;-70
2022/10/25 10:16:30;;;;;;;5.60;3.22;;;;;;;;;;4930038;28;20181;-67
2022/10/25 10:19:18;;;;;;;7.57;3.78;;;;;;;;;;4926244;28;20054;-67
2022/10/25 10:21:47;;;;;;;7.63;4.07;;;;;;;;;;4943304;28;20164;-67
2022/10/25 10:24:18;;;;;;;7.22;3.42;;;;;;;;;;4929288;28;20055;-67
2022/10/25 10:26:54;;;;;;;7.78;3.72;;;;;;;;;;4921815;28;20043;-66
2022/10/25 10:29:25;;;;;;;8.25;3.50;;;;;;;;;;4928014;28;20066;-66
2022/10/25 10:31:55;;;;;;;9.23;3.70;;;;;;;;;;4928694;28;20545;-67
2022/10/25 10:34:40;;;;;;;6.45;3.25;;;;;;;;;;4945999;28;20456;-67
2022/10/25 10:37:17;;;;;;;6.38;3.72;;;;;;;;;;4932465;28;20155;-67
2022/10/25 10:39:49;;;;;;;9.43;3.30;;;;;;;;;;4934662;28;20050;-67
2022/10/25 10:42:22;;;;;;;9.02;3.88;;;;;;;;;;4936218;28;20046;-67
2022/10/25 10:45:07;;;;;;;5.63;3.17;;;;;;;;;;4933500;28;20118;-66
2022/10/25 10:47:35;;;;;;;9.52;3.92;;;;;;;;;;4934524;28;20035;-66
2022/10/25 10:50:02;;;;;;;6.07;2.85;;;;;;;;;;4935051;28;20039;-67
2022/10/25 10:52:39;;;;;;;6.03;3.17;;;;;;;;;;4935127;28;20126;-67
2022/10/25 10:55:15;;;;;;;6.68;3.25;;;;;;;;;;4933364;28;20047;-67
2022/10/25 10:57:44;;;;;;;9.75;3.17;;;;;;;;;;4936156;28;20050;-67
2022/10/25 11:00:20;;;;;;;6.53;3.42;;;;;;;;;;4934202;28;20459;-66
2022/10/25 11:02:47;;;;;;;7.28;3.50;;;;;;;;;;4927863;28;20048;-66
2022/10/25 11:05:20;;;;;;;6.75;3.00;;;;;;;;;;4929295;28;20036;-66
2022/10/25 11:07:52;;;;;;;5.40;2.58;;;;;;;;;;4938042;28;20554;-67
2022/10/25 11:10:24;;;;;;;6.80;3.28;;;;;;;;;;4932790;28;20066;-66
2022/10/25 11:13:08;;;;;;;7.40;3.17;;;;;;;;;;4929850;28;20102;-66
2022/10/25 11:15:53;;;;;;;11.05;3.08;;;;;;;;;;4929997;28;20534;-66
2022/10/25 11:18:21;;;;;;;6.68;2.65;;;;;;;;;;4928585;28;20056;-66
2022/10/25 11:20:59;;;;;;;5.82;2.60;;;;;;;;;;4929036;28;20134;-66
2022/10/25 11:23:48;;;;;;;7.32;3.40;;;;;;;;;;4928948;28;20412;-67
2022/10/25 11:26:23;;;;;;;6.57;2.83;;;;;;;;;;4929847;28;20050;-67
2022/10/25 11:28:52;;;;;;;6.07;2.78;;;;;;;;;;4932382;28;20078;-66
2022/10/25 11:31:18;;;;;;;6.72;2.38;;;;;;;;;;4945958;28;20610;-66
2022/10/25 11:33:56;;;;;;;5.60;2.20;;;;;;;;;;4932994;28;20047;-65
2022/10/25 11:36:30;;;;;;;10.75;3.00;;;;;;;;;;4945636;28;20043;-65
2022/10/25 11:39:26;;;;;;;5.25;2.80;;;;;;;;;;4933367;28;20031;-66
2022/10/25 11:41:55;;;;;;;10.15;3.53;;;;;;;;;;4922043;28;20108;-67
2022/10/25 11:44:40;;;;;;;5.40;2.78;;;;;;;;;;4945401;28;20196;-67
2022/10/25 11:47:06;;;;;;;5.85;2.75;;;;;;;;;;4930857;28;20507;-65
2022/10/25 11:49:37;;;;;;;4.53;2.50;;;;;;;;;;4930776;28;20081;-66
2022/10/25 11:52:22;;;;;;;7.07;2.85;;;;;;;;;;4932765;28;20098;-67
2022/10/25 11:55:04;;;;;;;11.88;3.20;;;;;;;;;;4931845;28;20052;-67
2022/10/25 11:57:34;;;;;;;6.70;2.58;;;;;;;;;;4931545;28;20039;-66
2022/10/25 12:00:18;;;;;;;6.65;2.85;;;;;;;;;;4933117;28;20032;-67
2022/10/25 12:03:03;;;;;;;11.48;2.88;;;;;;;;;;4933707;28;20043;-67
2022/10/25 12:05:48;;;;;;;6.93;3.15;;;;;;;;;;4931190;28;20161;-67
2022/10/25 12:08:18;;;;;;;5.65;2.80;;;;;;;;;;4932918;28;20153;-66
2022/10/25 12:10:56;;;;;;;5.72;2.85;;;;;;;;;;4931184;28;20055;-66
2022/10/25 12:13:30;;;;;;;5.32;2.50;;;;;;;;;;4932475;28;20044;-66
2022/10/25 12:15:58;;;;;;;6.40;2.75;;;;;;;;;;4933771;28;20070;-65
2022/10/25 12:18:33;;;;;;;6.80;2.78;;;;;;;;;;4935786;28;20071;-66
2022/10/25 12:21:00;;;;;;;5.93;2.83;;;;;;;;;;4933970;28;20388;-66
2022/10/25 12:23:28;;;;;;;5.93;2.90;;;;;;;;;;4930658;28;20035;-66
2022/10/25 12:26:01;;;;;;;8.20;2.78;;;;;;;;;;4930827;28;20035;-67
2022/10/25 12:28:40;;;;;;;5.63;2.40;;;;;;;;;;4929783;28;20070;-67
2022/10/25 12:31:09;;;;;;;6.47;2.80;;;;;;;;;;4943316;28;20628;-66
2022/10/25 12:33:36;;;;;;;7.65;2.55;;;;;;;;;;4928887;28;20443;-65
2022/10/25 12:36:09;;;;;;;11.63;3.33;;;;;;;;;;4929973;28;20136;-67
2022/10/25 12:38:37;;;;;;;7.60;2.83;;;;;;;;;;4930296;28;20050;-68
2022/10/25 12:41:30;;;;;;;14.18;3.22;;;;;;;;;;4931635;28;20027;-66
2022/10/25 12:43:57;;;;;;;13.93;3.70;;;;;;;;;;4929422;28;20103;-67
2022/10/25 12:46:32;;;;;;;9.45;3.10;;;;;;;;;;4944554;28;20039;-66
2022/10/25 12:49:06;;;;;;;9.43;3.22;;;;;;;;;;4930925;28;20907;-66
2022/10/25 12:51:36;;;;;;;8.20;2.88;;;;;;;;;;4928326;28;20105;-66
2022/10/25 12:54:02;;;;;;;7.57;2.42;;;;;;;;;;4930494;28;20054;-65
2022/10/25 12:56:53;;;;;;;9.45;2.90;;;;;;;;;;4942415;28;20039;-68
2022/10/25 12:59:30;;;;;;;6.43;2.60;;;;;;;;;;4921772;28;20092;-66
2022/10/25 13:02:09;;;;;;;10.38;2.90;;;;;;;;;;4922715;28;20783;-67
2022/10/25 13:04:49;;;;;;;8.40;3.05;;;;;;;;;;4923746;28;20423;-67
2022/10/25 13:07:16;;;;;;;8.85;2.50;;;;;;;;;;4929213;28;20624;-67
2022/10/25 13:09:43;;;;;;;7.72;2.50;;;;;;;;;;4937350;28;20472;-66
2022/10/25 13:12:15;;;;;;;9.45;2.97;;;;;;;;;;4931549;28;20050;-65
2022/10/25 13:14:46;;;;;;;7.53;2.33;;;;;;;;;;4930172;28;20492;-65
2022/10/25 13:17:16;;;;;;;11.25;2.83;;;;;;;;;;4930396;28;20094;-65
2022/10/25 13:19:49;;;;;;;9.93;2.50;;;;;;;;;;4929653;28;20130;-65
2022/10/25 13:22:29;;;;;;;13.13;2.83;;;;;;;;;;4931372;28;21728;-65
2022/10/25 13:24:56;;;;;;;6.60;1.90;;;;;;;;;;4928058;28;20081;-66
2022/10/25 13:27:24;;;;;;;22.17;3.03;;;;;;;;;;4927518;28;20090;-65
2022/10/25 13:30:06;;;;;;;10.35;2.40;;;;;;;;;;4927908;28;20044;-66
2022/10/25 13:32:36;;;;;;;13.10;3.40;;;;;;;;;;4929052;28;20456;-66
2022/10/25 13:35:23;;;;;;;9.02;2.55;;;;;;;;;;4930241;28;20071;-67
2022/10/25 13:38:06;;;;;;;5.72;2.47;;;;;;;;;;4930354;28;20043;-66
2022/10/25 13:40:33;;;;;;;;;;;;;;;;;;4929996;28;20130;-66
2022/10/25 13:43:01;;;;;;;8.50;2.25;;;;;;;;;;4932431;28;19929;-65
2022/10/25 13:45:37;;;;;;;13.27;2.10;;;;;;;;;;4931705;28;20107;-66
2022/10/25 13:48:24;;;;;;;6.22;2.30;;;;;;;;;;4930226;28;20061;-66
2022/10/25 13:50:55;;;;;;;7.38;1.90;;;;;;;;;;4930185;28;20063;-69
2022/10/25 13:53:26;;;;;;;6.80;1.70;;;;;;;;;;4943298;28;20040;-66
2022/10/25 13:56:19;;;;;;;12.38;2.03;;;;;;;;;;4929352;28;20082;-66
2022/10/25 13:58:47;;;;;;;5.88;2.13;;;;;;;;;;4927334;28;20059;-66
2022/10/25 14:01:16;;;;;;;5.38;1.67;;;;;;;;;;4927995;28;20067;-69
2022/10/25 14:03:48;;;;;;;6.15;2.00;;;;;;;;;;4941852;28;20040;-64
2022/10/25 14:06:25;;;;;;;9.23;1.80;;;;;;;;;;4941428;28;20408;-63
2022/10/25 14:08:58;;;;;;;7.78;2.08;;;;;;;;;;4929012;28;20150;-65
2022/10/25 14:11:40;;;;;;;6.28;2.00;;;;;;;;;;4927228;28;20586;-65
2022/10/25 14:14:12;;;;;;;9.95;2.30;;;;;;;;;;4929653;28;20146;-67
2022/10/25 14:16:44;;;;;;;5.07;1.77;;;;;;;;;;4928232;28;20903;-66
2022/10/25 14:19:14;;;;;;;7.63;2.03;;;;;;;;;;4928264;28;20047;-65
2022/10/25 14:21:44;;;;;;;14.90;2.00;;;;;;;;;;4927545;28;20043;-66
2022/10/25 14:24:13;;;;;;;5.30;1.85;;;;;;;;;;4928256;28;20090;-67
2022/10/25 14:26:49;;;;;;;7.72;1.77;;;;;;;;;;4928288;28;20035;-67
2022/10/25 14:29:18;;;;;;;13.80;1.70;;;;;;;;;;4943464;28;20047;-66
2022/10/25 14:31:45;;;;;;;10.60;1.80;;;;;;;;;;4929429;28;20051;-66
2022/10/25 14:34:22;;;;;;;5.18;1.30;;;;;;;;;;4928734;28;20055;-66
2022/10/25 14:36:50;;;;;;;7.10;1.27;;;;;;;;;;4926805;28;20040;-70
2022/10/25 14:39:19;;;;;;;4.30;1.35;;;;;;;;;;4942407;28;20050;-66
2022/10/25 14:41:53;;;;;;;6.80;1.63;;;;;;;;;;4928020;28;20496;-65
2022/10/25 14:44:28;;;;;;;4.53;1.63;;;;;;;;;;4928044;28;20044;-67
2022/10/25 14:46:58;;;;;;;13.25;1.90;;;;;;;;;;4943103;28;20054;-67
2022/10/25 14:49:26;;;;;;;4.07;1.40;;;;;;;;;;4940069;28;20036;-67
2022/10/25 14:52:02;;;;;;;8.25;1.65;;;;;;;;;;4928958;28;20063;-66
2022/10/25 14:54:37;;;;;;;2.80;0.85;;;;;;;;;;4928649;28;20047;-65
2022/10/25 14:57:05;;;;;;;1.50;0.55;;;;;;;;;;4926261;28;20040;-65
2022/10/25 14:59:45;;;;;;;3.22;0.70;;;;;;;;;;4925731;28;20050;-66